sensor_id;sensor_type;location;lat;lon;timestamp;pressure;altitude;pressure_sealevel;temperature;humidity
49583;BME280;36329;48.816;44.624;2023-04-07T00:02:35;100921;;;11.2;60
49583;BME280;36329;48.816;44.624;2023-04-07T00:05:37;100911;;;11.2;60
49583;BME280;36329;48.816;44.624;2023-04-07T00:08:39;100912;;;11.1;60.2
49583;BME280;36329;48.816;44.624;2023-04-07T00:11:40;100913;;;11;60.5
49583;BME280;36329;48.816;44.624;2023-04-07T00:14:43;100911;;;11;60.7
49583;BME280;36329;48.816;44.624;2023-04-07T00:17:45;100911;;;11.2;60.3
49583;BME280;36329;48.816;44.624;2023-04-07T00:20:47;100923;;;11.1;60.2
49583;BME280;36329;48.816;44.624;2023-04-07T00:23:49;100909;;;11;60.4
49583;BME280;36329;48.816;44.624;2023-04-07T00:26:51;100922;;;11.1;60.6
49583;BME280;36329;48.816;44.624;2023-04-07T00:29:54;100909;;;11;60.5
49583;BME280;36329;48.816;44.624;2023-04-07T00:32:56;100917;;;11.1;60.3
49583;BME280;36329;48.816;44.624;2023-04-07T00:35:58;100897;;;11;60.4
49583;BME280;36329;48.816;44.624;2023-04-07T00:39:00;100922;;;10.9;61.1
49583;BME280;36329;48.816;44.624;2023-04-07T00:42:03;100914;;;10.9;61.2
49583;BME280;36329;48.816;44.624;2023-04-07T00:45:05;100917;;;10.9;61.2
49583;BME280;36329;48.816;44.624;2023-04-07T00:48:08;100911;;;10.9;61.2
49583;BME280;36329;48.816;44.624;2023-04-07T00:51:11;100921;;;10.9;61
49583;BME280;36329;48.816;44.624;2023-04-07T00:54:14;100923;;;11.1;60.2
49583;BME280;36329;48.816;44.624;2023-04-07T00:57:16;100909;;;11.1;60.3
49583;BME280;36329;48.816;44.624;2023-04-07T01:00:18;100916;;;10.9;60.7
49583;BME280;36329;48.816;44.624;2023-04-07T01:03:24;100923;;;10.9;61.1
49583;BME280;36329;48.816;44.624;2023-04-07T01:06:34;100915;;;10.8;61.5
49583;BME280;36329;48.816;44.624;2023-04-07T01:09:44;100914;;;10.9;61.3
49583;BME280;36329;48.816;44.624;2023-04-07T01:12:58;100914;;;10.8;61.5
49583;BME280;36329;48.816;44.624;2023-04-07T01:16:04;100917;;;10.8;61.5
49583;BME280;36329;48.816;44.624;2023-04-07T01:19:14;100916;;;10.8;61.7
49583;BME280;36329;48.816;44.624;2023-04-07T01:22:26;100929;;;10.5;62.8
49583;BME280;36329;48.816;44.624;2023-04-07T01:25:38;100913;;;10.4;63.3
49583;BME280;36329;48.816;44.624;2023-04-07T01:29:10;100915;;;10.5;63.2
49583;BME280;36329;48.816;44.624;2023-04-07T01:32:16;100918;;;10.5;63.1
49583;BME280;36329;48.816;44.624;2023-04-07T01:35:20;100915;;;10.6;63.2
49583;BME280;36329;48.816;44.624;2023-04-07T01:38:24;100911;;;10.4;63.3
49583;BME280;36329;48.816;44.624;2023-04-07T01:41:27;100905;;;10.3;63.9
49583;BME280;36329;48.816;44.624;2023-04-07T01:44:31;100913;;;10.3;64.2
49583;BME280;36329;48.816;44.624;2023-04-07T01:47:35;100914;;;10.2;64.3
49583;BME280;36329;48.816;44.624;2023-04-07T01:50:37;100897;;;10.2;64.6
49583;BME280;36329;48.816;44.624;2023-04-07T01:53:40;100914;;;10.2;64.5
49583;BME280;36329;48.816;44.624;2023-04-07T01:56:43;100913;;;10.1;64.9
49583;BME280;36329;48.816;44.624;2023-04-07T01:59:46;100921;;;10.1;64.8
49583;BME280;36329;48.816;44.624;2023-04-07T02:02:51;100915;;;10.3;64.5
49583;BME280;36329;48.816;44.624;2023-04-07T02:05:59;100918;;;10.2;64.4
49583;BME280;36329;48.816;44.624;2023-04-07T02:09:10;100928;;;10.1;65.1
49583;BME280;36329;48.816;44.624;2023-04-07T02:12:14;100925;;;10;65.3
49583;BME280;36329;48.816;44.624;2023-04-07T02:15:18;100933;;;9.9;65.9
49583;BME280;36329;48.816;44.624;2023-04-07T02:18:21;100947;;;9.8;66.2
49583;BME280;36329;48.816;44.624;2023-04-07T02:21:24;100932;;;9.9;66
49583;BME280;36329;48.816;44.624;2023-04-07T02:24:26;100920;;;9.8;65.9
49583;BME280;36329;48.816;44.624;2023-04-07T02:27:28;100932;;;9.7;66.2
49583;BME280;36329;48.816;44.624;2023-04-07T02:30:31;100941;;;9.7;66.2
49583;BME280;36329;48.816;44.624;2023-04-07T02:33:34;100934;;;9.8;66.1
49583;BME280;36329;48.816;44.624;2023-04-07T02:36:36;100937;;;9.7;66.4
49583;BME280;36329;48.816;44.624;2023-04-07T02:39:38;100943;;;9.7;66.4
49583;BME280;36329;48.816;44.624;2023-04-07T02:42:40;100942;;;9.7;66.4
49583;BME280;36329;48.816;44.624;2023-04-07T02:45:42;100928;;;9.7;66.6
49583;BME280;36329;48.816;44.624;2023-04-07T02:48:45;100941;;;9.7;66.4
49583;BME280;36329;48.816;44.624;2023-04-07T02:51:46;100945;;;9.7;66.5
49583;BME280;36329;48.816;44.624;2023-04-07T02:54:48;100949;;;9.8;66.2
49583;BME280;36329;48.816;44.624;2023-04-07T02:57:50;100944;;;9.8;66.2
49583;BME280;36329;48.816;44.624;2023-04-07T03:00:53;100952;;;9.7;66.2
49583;BME280;36329;48.816;44.624;2023-04-07T03:03:55;100957;;;9.8;66.5
49583;BME280;36329;48.816;44.624;2023-04-07T03:06:57;100953;;;9.5;67.3
49583;BME280;36329;48.816;44.624;2023-04-07T03:09:59;100949;;;9.6;66.6
49583;BME280;36329;48.816;44.624;2023-04-07T03:13:02;100945;;;9.6;67
49583;BME280;36329;48.816;44.624;2023-04-07T03:16:04;100958;;;9.6;67.1
49583;BME280;36329;48.816;44.624;2023-04-07T03:19:06;100955;;;9.5;67.2
49583;BME280;36329;48.816;44.624;2023-04-07T03:22:08;100974;;;9.4;67.6
49583;BME280;36329;48.816;44.624;2023-04-07T03:25:10;100956;;;9.3;68.2
49583;BME280;36329;48.816;44.624;2023-04-07T03:28:12;100967;;;9.3;67.7
49583;BME280;36329;48.816;44.624;2023-04-07T03:31:13;100970;;;9.4;67.5
49583;BME280;36329;48.816;44.624;2023-04-07T03:34:15;100968;;;9.3;68.2
49583;BME280;36329;48.816;44.624;2023-04-07T03:37:17;100973;;;9.4;67.6
49583;BME280;36329;48.816;44.624;2023-04-07T03:40:19;100961;;;9.5;67.3
49583;BME280;36329;48.816;44.624;2023-04-07T03:43:22;100972;;;9.5;67.2
49583;BME280;36329;48.816;44.624;2023-04-07T03:46:24;100976;;;9.6;66.9
49583;BME280;36329;48.816;44.624;2023-04-07T03:49:26;100983;;;9.6;67.2
49583;BME280;36329;48.816;44.624;2023-04-07T03:52:28;100977;;;9.6;66.7
49583;BME280;36329;48.816;44.624;2023-04-07T03:55:31;100983;;;9.8;66.4
49583;BME280;36329;48.816;44.624;2023-04-07T03:58:33;100984;;;10;65.8
49583;BME280;36329;48.816;44.624;2023-04-07T04:01:35;100975;;;10;64.8
49583;BME280;36329;48.816;44.624;2023-04-07T04:04:37;100993;;;10.2;64.5
49583;BME280;36329;48.816;44.624;2023-04-07T04:07:40;100992;;;10.3;64.2
49583;BME280;36329;48.816;44.624;2023-04-07T04:10:42;101001;;;10.2;64
49583;BME280;36329;48.816;44.624;2023-04-07T04:13:45;100991;;;10.1;64.5
49583;BME280;36329;48.816;44.624;2023-04-07T04:16:47;101004;;;10.1;64.6
49583;BME280;36329;48.816;44.624;2023-04-07T04:19:48;100994;;;10.3;63.9
49583;BME280;36329;48.816;44.624;2023-04-07T04:22:50;101005;;;10;65.1
49583;BME280;36329;48.816;44.624;2023-04-07T04:25:54;101005;;;10;65.6
49583;BME280;36329;48.816;44.624;2023-04-07T04:28:57;101000;;;10.1;64.8
49583;BME280;36329;48.816;44.624;2023-04-07T04:31:59;101004;;;10.2;64.7
49583;BME280;36329;48.816;44.624;2023-04-07T04:35:01;101002;;;10;65.4
49583;BME280;36329;48.816;44.624;2023-04-07T04:38:05;101001;;;10.2;64.7
49583;BME280;36329;48.816;44.624;2023-04-07T04:41:07;101005;;;10.3;64
49583;BME280;36329;48.816;44.624;2023-04-07T04:44:09;101005;;;10.4;63.6
49583;BME280;36329;48.816;44.624;2023-04-07T04:47:11;101002;;;10.5;63.3
49583;BME280;36329;48.816;44.624;2023-04-07T04:50:12;101008;;;10.7;62.6
49583;BME280;36329;48.816;44.624;2023-04-07T04:53:14;101002;;;10.7;62.6
49583;BME280;36329;48.816;44.624;2023-04-07T04:56:16;100996;;;10.5;63.2
49583;BME280;36329;48.816;44.624;2023-04-07T04:59:18;101009;;;10.7;63
49583;BME280;36329;48.816;44.624;2023-04-07T05:02:20;101016;;;10.8;62.6
49583;BME280;36329;48.816;44.624;2023-04-07T05:05:22;101039;;;11;62.2
49583;BME280;36329;48.816;44.624;2023-04-07T05:08:24;101008;;;11.1;61.8
49583;BME280;36329;48.816;44.624;2023-04-07T05:11:26;101015;;;11.2;61
49583;BME280;36329;48.816;44.624;2023-04-07T05:14:28;101027;;;11.2;61
49583;BME280;36329;48.816;44.624;2023-04-07T05:17:31;101027;;;11.4;60.3
49583;BME280;36329;48.816;44.624;2023-04-07T05:20:33;101034;;;11.1;61.6
49583;BME280;36329;48.816;44.624;2023-04-07T05:23:35;101026;;;11.3;60.8
49583;BME280;36329;48.816;44.624;2023-04-07T05:26:37;101032;;;11.5;61
49583;BME280;36329;48.816;44.624;2023-04-07T05:29:39;101032;;;11.9;58.8
49583;BME280;36329;48.816;44.624;2023-04-07T05:32:41;101033;;;11.9;58.3
49583;BME280;36329;48.816;44.624;2023-04-07T05:35:43;101038;;;12.2;58.2
49583;BME280;36329;48.816;44.624;2023-04-07T05:38:46;101035;;;12.4;57
49583;BME280;36329;48.816;44.624;2023-04-07T05:41:48;101040;;;12.5;57
49583;BME280;36329;48.816;44.624;2023-04-07T05:44:50;101044;;;12.3;57.4
49583;BME280;36329;48.816;44.624;2023-04-07T05:47:52;101047;;;12.7;56.4
49583;BME280;36329;48.816;44.624;2023-04-07T05:50:54;101049;;;12.7;56.6
49583;BME280;36329;48.816;44.624;2023-04-07T05:53:57;101041;;;12.9;55.9
49583;BME280;36329;48.816;44.624;2023-04-07T05:56:59;101051;;;13.1;55.2
49583;BME280;36329;48.816;44.624;2023-04-07T06:00:02;101054;;;13;55
49583;BME280;36329;48.816;44.624;2023-04-07T06:03:05;101048;;;13.4;54
49583;BME280;36329;48.816;44.624;2023-04-07T06:06:08;101042;;;13.3;54.2
49583;BME280;36329;48.816;44.624;2023-04-07T06:09:10;101064;;;12.9;55.2
49583;BME280;36329;48.816;44.624;2023-04-07T06:12:12;101052;;;13.3;54.9
49583;BME280;36329;48.816;44.624;2023-04-07T06:15:14;101050;;;13.5;53.7
49583;BME280;36329;48.816;44.624;2023-04-07T06:18:17;101054;;;13.6;53
49583;BME280;36329;48.816;44.624;2023-04-07T06:21:19;101051;;;13.8;53.1
49583;BME280;36329;48.816;44.624;2023-04-07T06:24:21;101056;;;14.2;51.4
49583;BME280;36329;48.816;44.624;2023-04-07T06:27:23;101055;;;14.3;51.9
49583;BME280;36329;48.816;44.624;2023-04-07T06:30:25;101060;;;14.5;52.2
49583;BME280;36329;48.816;44.624;2023-04-07T06:33:27;101076;;;14.6;51.7
49583;BME280;36329;48.816;44.624;2023-04-07T06:36:29;101061;;;13.9;52.5
49583;BME280;36329;48.816;44.624;2023-04-07T06:39:31;101060;;;14.1;52
49583;BME280;36329;48.816;44.624;2023-04-07T06:42:34;101056;;;14.4;50.8
49583;BME280;36329;48.816;44.624;2023-04-07T06:45:36;101066;;;14.7;50.7
49583;BME280;36329;48.816;44.624;2023-04-07T06:48:38;101038;;;15;49.8
49583;BME280;36329;48.816;44.624;2023-04-07T06:51:40;101056;;;15.1;48.9
49583;BME280;36329;48.816;44.624;2023-04-07T06:54:42;101060;;;15.2;48.9
49583;BME280;36329;48.816;44.624;2023-04-07T06:57:45;101054;;;14.9;49
49583;BME280;36329;48.816;44.624;2023-04-07T07:00:47;101064;;;15.3;49.6
49583;BME280;36329;48.816;44.624;2023-04-07T07:03:49;101045;;;15.2;48.3
49583;BME280;36329;48.816;44.624;2023-04-07T07:06:51;101061;;;15.7;48.2
49583;BME280;36329;48.816;44.624;2023-04-07T07:09:53;101065;;;16.2;46.4
49583;BME280;36329;48.816;44.624;2023-04-07T07:12:55;101066;;;16.2;46.2
49583;BME280;36329;48.816;44.624;2023-04-07T07:15:57;101051;;;16.3;45.6
49583;BME280;36329;48.816;44.624;2023-04-07T07:19:00;101066;;;16.5;45.4
49583;BME280;36329;48.816;44.624;2023-04-07T07:22:02;101059;;;16.5;45.5
49583;BME280;36329;48.816;44.624;2023-04-07T07:25:04;101066;;;16.5;46.4
49583;BME280;36329;48.816;44.624;2023-04-07T07:28:06;101057;;;17;45.2
49583;BME280;36329;48.816;44.624;2023-04-07T07:31:09;101049;;;17.1;43.6
49583;BME280;36329;48.816;44.624;2023-04-07T07:34:11;101060;;;17.3;43.5
49583;BME280;36329;48.816;44.624;2023-04-07T07:37:13;101062;;;17;44.1
49583;BME280;36329;48.816;44.624;2023-04-07T07:40:15;101058;;;17.3;44.4
49583;BME280;36329;48.816;44.624;2023-04-07T07:43:17;101062;;;17.1;43.6
49583;BME280;36329;48.816;44.624;2023-04-07T07:46:19;101061;;;17.1;43.8
49583;BME280;36329;48.816;44.624;2023-04-07T07:49:21;101059;;;17.2;43.3
49583;BME280;36329;48.816;44.624;2023-04-07T07:52:23;101061;;;17.6;42.4
49583;BME280;36329;48.816;44.624;2023-04-07T07:55:25;101050;;;17.6;43.1
49583;BME280;36329;48.816;44.624;2023-04-07T07:58:27;101060;;;17.8;42.1
49583;BME280;36329;48.816;44.624;2023-04-07T08:01:29;101055;;;17.9;41.9
49583;BME280;36329;48.816;44.624;2023-04-07T08:04:31;101060;;;18.2;41.4
49583;BME280;36329;48.816;44.624;2023-04-07T08:07:33;101052;;;17.9;41.8
49583;BME280;36329;48.816;44.624;2023-04-07T08:10:35;101053;;;18.4;41.2
49583;BME280;36329;48.816;44.624;2023-04-07T08:13:37;101041;;;18.5;40.7
49583;BME280;36329;48.816;44.624;2023-04-07T08:16:39;101060;;;18.5;40.3
49583;BME280;36329;48.816;44.624;2023-04-07T08:19:41;101054;;;18.2;41.1
49583;BME280;36329;48.816;44.624;2023-04-07T08:22:45;101063;;;18.8;40.3
49583;BME280;36329;48.816;44.624;2023-04-07T08:25:47;101062;;;18.8;39.9
49583;BME280;36329;48.816;44.624;2023-04-07T08:28:49;101055;;;19;39.5
49583;BME280;36329;48.816;44.624;2023-04-07T08:31:51;101062;;;19;39.6
49583;BME280;36329;48.816;44.624;2023-04-07T08:34:55;101063;;;19.3;39.4
49583;BME280;36329;48.816;44.624;2023-04-07T08:37:57;101060;;;19.9;38.2
49583;BME280;36329;48.816;44.624;2023-04-07T08:41:12;101060;;;19.8;38.3
49583;BME280;36329;48.816;44.624;2023-04-07T08:44:15;101059;;;19.4;38.8
49583;BME280;36329;48.816;44.624;2023-04-07T08:47:19;101059;;;19.4;38.6
49583;BME280;36329;48.816;44.624;2023-04-07T08:50:25;101074;;;19.6;38.8
49583;BME280;36329;48.816;44.624;2023-04-07T08:53:34;101070;;;20;37.7
49583;BME280;36329;48.816;44.624;2023-04-07T08:56:38;101058;;;19.8;38
49583;BME280;36329;48.816;44.624;2023-04-07T08:59:41;101051;;;19.5;38.7
49583;BME280;36329;48.816;44.624;2023-04-07T09:02:43;101054;;;20;37.8
49583;BME280;36329;48.816;44.624;2023-04-07T09:05:46;101052;;;20;37.7
49583;BME280;36329;48.816;44.624;2023-04-07T09:08:48;101054;;;19.6;38.3
49583;BME280;36329;48.816;44.624;2023-04-07T09:11:50;101064;;;20.2;37.4
49583;BME280;36329;48.816;44.624;2023-04-07T09:14:53;101060;;;20.4;37.3
49583;BME280;36329;48.816;44.624;2023-04-07T09:17:56;101059;;;20.4;36.9
49583;BME280;36329;48.816;44.624;2023-04-07T09:20:59;101059;;;20.3;36.9
49583;BME280;36329;48.816;44.624;2023-04-07T09:24:20;101051;;;20.4;36.2
49583;BME280;36329;48.816;44.624;2023-04-07T09:27:23;101051;;;20.5;36.6
49583;BME280;36329;48.816;44.624;2023-04-07T09:30:26;101051;;;21.2;36
49583;BME280;36329;48.816;44.624;2023-04-07T09:33:29;101056;;;21;35.9
49583;BME280;36329;48.816;44.624;2023-04-07T09:36:40;101058;;;21;35.3
49583;BME280;36329;48.816;44.624;2023-04-07T09:39:48;101054;;;21;35.7
49583;BME280;36329;48.816;44.624;2023-04-07T09:42:51;101044;;;20.6;36.3
49583;BME280;36329;48.816;44.624;2023-04-07T09:46:05;101057;;;20.9;36.3
49583;BME280;36329;48.816;44.624;2023-04-07T09:49:08;101048;;;21.1;35.7
49583;BME280;36329;48.816;44.624;2023-04-07T09:52:10;101059;;;21.1;35.9
49583;BME280;36329;48.816;44.624;2023-04-07T09:55:12;101047;;;20.8;36.1
49583;BME280;36329;48.816;44.624;2023-04-07T09:58:14;101040;;;20.1;37.3
49583;BME280;36329;48.816;44.624;2023-04-07T10:01:19;101049;;;20;37.3
49583;BME280;36329;48.816;44.624;2023-04-07T10:04:21;101052;;;19.5;38.5
49583;BME280;36329;48.816;44.624;2023-04-07T10:07:24;101044;;;19.6;38.6
49583;BME280;36329;48.816;44.624;2023-04-07T10:10:27;101049;;;19.8;38.4
49583;BME280;36329;48.816;44.624;2023-04-07T10:13:31;101050;;;19.8;38.2
49583;BME280;36329;48.816;44.624;2023-04-07T10:16:34;101049;;;20.1;37.8
49583;BME280;36329;48.816;44.624;2023-04-07T10:19:37;101049;;;19.7;38.2
49583;BME280;36329;48.816;44.624;2023-04-07T10:22:41;101045;;;19.8;38
49583;BME280;36329;48.816;44.624;2023-04-07T10:25:45;101050;;;19.5;38.5
49583;BME280;36329;48.816;44.624;2023-04-07T10:28:51;101051;;;20.2;38.1
49583;BME280;36329;48.816;44.624;2023-04-07T10:31:58;101048;;;20.5;37.1
49583;BME280;36329;48.816;44.624;2023-04-07T10:35:00;101044;;;20.6;36.7
49583;BME280;36329;48.816;44.624;2023-04-07T10:38:11;101045;;;20.8;38.4
49583;BME280;36329;48.816;44.624;2023-04-07T10:41:31;101047;;;20.6;36.9
49583;BME280;36329;48.816;44.624;2023-04-07T10:44:49;101041;;;20.5;37.1
49583;BME280;36329;48.816;44.624;2023-04-07T10:48:09;101045;;;20.1;39.7
49583;BME280;36329;48.816;44.624;2023-04-07T10:51:14;101037;;;19.9;39.1
49583;BME280;36329;48.816;44.624;2023-04-07T10:54:17;101029;;;20.4;37.7
49583;BME280;36329;48.816;44.624;2023-04-07T10:57:20;101040;;;20.2;38.6
49583;BME280;36329;48.816;44.624;2023-04-07T11:00:22;101036;;;20.5;37.8
49583;BME280;36329;48.816;44.624;2023-04-07T11:03:24;101041;;;20.3;38.4
49583;BME280;36329;48.816;44.624;2023-04-07T11:06:27;101031;;;19.7;39.8
49583;BME280;36329;48.816;44.624;2023-04-07T11:09:29;101028;;;19.6;39.8
49583;BME280;36329;48.816;44.624;2023-04-07T11:12:31;101031;;;19.8;39.1
49583;BME280;36329;48.816;44.624;2023-04-07T11:15:34;101015;;;19.5;40.4
49583;BME280;36329;48.816;44.624;2023-04-07T11:18:37;101019;;;19.5;39.9
49583;BME280;36329;48.816;44.624;2023-04-07T11:21:39;101018;;;19.9;39.7
49583;BME280;36329;48.816;44.624;2023-04-07T11:24:41;101028;;;19.9;40.5
49583;BME280;36329;48.816;44.624;2023-04-07T11:27:44;101021;;;20.1;39.3
49583;BME280;36329;48.816;44.624;2023-04-07T11:30:48;101024;;;19.7;39.6
49583;BME280;36329;48.816;44.624;2023-04-07T11:33:51;101015;;;19.8;39.5
49583;BME280;36329;48.816;44.624;2023-04-07T11:36:53;101019;;;19.5;39.9
49583;BME280;36329;48.816;44.624;2023-04-07T11:39:57;101016;;;19.8;39.5
49583;BME280;36329;48.816;44.624;2023-04-07T11:43:00;101017;;;19.7;39.4
49583;BME280;36329;48.816;44.624;2023-04-07T11:46:05;101013;;;19.6;39.5
49583;BME280;36329;48.816;44.624;2023-04-07T11:49:08;101013;;;19.7;39.8
49583;BME280;36329;48.816;44.624;2023-04-07T11:52:11;101014;;;19.4;40.1
49583;BME280;36329;48.816;44.624;2023-04-07T11:55:17;101009;;;19.3;40.1
49583;BME280;36329;48.816;44.624;2023-04-07T11:58:19;101006;;;19.3;40.2
49583;BME280;36329;48.816;44.624;2023-04-07T12:01:22;101008;;;19.5;39.4
49583;BME280;36329;48.816;44.624;2023-04-07T12:04:24;101017;;;19.3;40.6
49583;BME280;36329;48.816;44.624;2023-04-07T12:07:26;101007;;;19.4;40.5
49583;BME280;36329;48.816;44.624;2023-04-07T12:10:29;101007;;;19.5;39.5
49583;BME280;36329;48.816;44.624;2023-04-07T12:13:30;101005;;;19.4;39.9
49583;BME280;36329;48.816;44.624;2023-04-07T12:16:36;101009;;;19.5;39.5
49583;BME280;36329;48.816;44.624;2023-04-07T12:19:39;101015;;;19.5;39.6
49583;BME280;36329;48.816;44.624;2023-04-07T12:22:42;101010;;;19.3;39.3
49583;BME280;36329;48.816;44.624;2023-04-07T12:25:44;101017;;;19.2;40
49583;BME280;36329;48.816;44.624;2023-04-07T12:28:46;101011;;;19.3;40.2
49583;BME280;36329;48.816;44.624;2023-04-07T12:31:48;101012;;;19.3;39.2
49583;BME280;36329;48.816;44.624;2023-04-07T12:34:50;101016;;;19.4;39.1
49583;BME280;36329;48.816;44.624;2023-04-07T12:37:52;101013;;;19.4;39.1
49583;BME280;36329;48.816;44.624;2023-04-07T12:40:54;101012;;;19.2;39.2
49583;BME280;36329;48.816;44.624;2023-04-07T12:43:56;101024;;;19.3;40
49583;BME280;36329;48.816;44.624;2023-04-07T12:46:58;101026;;;19;38.4
49583;BME280;36329;48.816;44.624;2023-04-07T12:50:00;101024;;;18.8;38.8
49583;BME280;36329;48.816;44.624;2023-04-07T12:53:02;101018;;;18.8;38.5
49583;BME280;36329;48.816;44.624;2023-04-07T12:56:04;101016;;;19;38.7
49583;BME280;36329;48.816;44.624;2023-04-07T12:59:06;101019;;;19;38.9
49583;BME280;36329;48.816;44.624;2023-04-07T13:02:09;101022;;;19;38.8
49583;BME280;36329;48.816;44.624;2023-04-07T13:05:11;101025;;;18.8;38.9
49583;BME280;36329;48.816;44.624;2023-04-07T13:08:13;101020;;;18.8;37.9
49583;BME280;36329;48.816;44.624;2023-04-07T13:11:15;101019;;;18.8;37.5
49583;BME280;36329;48.816;44.624;2023-04-07T13:14:17;101013;;;18.7;37.6
49583;BME280;36329;48.816;44.624;2023-04-07T13:17:19;101016;;;18.9;38.1
49583;BME280;36329;48.816;44.624;2023-04-07T13:20:22;101015;;;19.1;37.4
49583;BME280;36329;48.816;44.624;2023-04-07T13:23:24;101016;;;19.2;37.7
49583;BME280;36329;48.816;44.624;2023-04-07T13:26:25;101016;;;18.9;37.6
49583;BME280;36329;48.816;44.624;2023-04-07T13:29:28;101020;;;18.9;38.5
49583;BME280;36329;48.816;44.624;2023-04-07T13:32:30;101019;;;18.8;38.5
49583;BME280;36329;48.816;44.624;2023-04-07T13:35:32;101019;;;18.7;38.7
49583;BME280;36329;48.816;44.624;2023-04-07T13:38:35;101021;;;18.9;39.1
49583;BME280;36329;48.816;44.624;2023-04-07T13:41:37;101026;;;18.6;39.7
49583;BME280;36329;48.816;44.624;2023-04-07T13:44:39;101029;;;18.6;39
49583;BME280;36329;48.816;44.624;2023-04-07T13:47:41;101028;;;18.5;41.2
49583;BME280;36329;48.816;44.624;2023-04-07T13:50:43;101030;;;18.6;38.6
49583;BME280;36329;48.816;44.624;2023-04-07T13:53:45;101030;;;18.6;38.5
49583;BME280;36329;48.816;44.624;2023-04-07T13:56:48;101030;;;18.6;38.5
49583;BME280;36329;48.816;44.624;2023-04-07T13:59:50;101024;;;18.6;38.7
49583;BME280;36329;48.816;44.624;2023-04-07T14:02:52;101027;;;18.6;38.5
49583;BME280;36329;48.816;44.624;2023-04-07T14:05:54;101029;;;18.4;39
49583;BME280;36329;48.816;44.624;2023-04-07T14:08:57;101035;;;18.2;39.8
49583;BME280;36329;48.816;44.624;2023-04-07T14:11:59;101025;;;18.1;38.5
49583;BME280;36329;48.816;44.624;2023-04-07T14:15:01;101022;;;18.1;38.5
49583;BME280;36329;48.816;44.624;2023-04-07T14:18:05;101030;;;18.2;38.4
49583;BME280;36329;48.816;44.624;2023-04-07T14:21:09;101029;;;18.3;38.4
49583;BME280;36329;48.816;44.624;2023-04-07T14:24:11;101032;;;18.3;37.8
49583;BME280;36329;48.816;44.624;2023-04-07T14:27:13;101035;;;18.3;38.2
49583;BME280;36329;48.816;44.624;2023-04-07T14:30:15;101035;;;18.2;37.8
49583;BME280;36329;48.816;44.624;2023-04-07T14:33:17;101033;;;18.1;37.5
49583;BME280;36329;48.816;44.624;2023-04-07T14:36:19;101033;;;18.2;36.5
49583;BME280;36329;48.816;44.624;2023-04-07T14:39:21;101035;;;18.1;36.8
49583;BME280;36329;48.816;44.624;2023-04-07T14:42:24;101034;;;18.1;37.3
49583;BME280;36329;48.816;44.624;2023-04-07T14:45:25;101040;;;18.1;37.8
49583;BME280;36329;48.816;44.624;2023-04-07T14:48:27;101040;;;17.8;38.5
49583;BME280;36329;48.816;44.624;2023-04-07T14:51:30;101043;;;17.8;39.1
49583;BME280;36329;48.816;44.624;2023-04-07T14:54:32;101036;;;17.5;39.3
49583;BME280;36329;48.816;44.624;2023-04-07T14:57:34;101044;;;17.5;39.5
49583;BME280;36329;48.816;44.624;2023-04-07T15:00:36;101048;;;17.3;39.7
49583;BME280;36329;48.816;44.624;2023-04-07T15:03:39;101046;;;17.1;40.4
49583;BME280;36329;48.816;44.624;2023-04-07T15:06:41;101043;;;17;40.6
49583;BME280;36329;48.816;44.624;2023-04-07T15:09:43;101048;;;17;41.1
49583;BME280;36329;48.816;44.624;2023-04-07T15:12:46;101052;;;16.7;41.7
49583;BME280;36329;48.816;44.624;2023-04-07T15:15:48;101049;;;16.6;42.1
49583;BME280;36329;48.816;44.624;2023-04-07T15:18:50;101054;;;16.5;42.6
49583;BME280;36329;48.816;44.624;2023-04-07T15:21:51;101057;;;16.5;42.8
49583;BME280;36329;48.816;44.624;2023-04-07T15:24:54;101058;;;16.5;42.7
49583;BME280;36329;48.816;44.624;2023-04-07T15:27:56;101067;;;16.4;43.1
49583;BME280;36329;48.816;44.624;2023-04-07T15:30:59;101066;;;16.3;43.6
49583;BME280;36329;48.816;44.624;2023-04-07T15:34:01;101076;;;16.2;43.7
49583;BME280;36329;48.816;44.624;2023-04-07T15:37:03;101072;;;16.2;43.8
49583;BME280;36329;48.816;44.624;2023-04-07T15:40:06;101078;;;16.3;43.6
49583;BME280;36329;48.816;44.624;2023-04-07T15:43:08;101076;;;16.3;43.7
49583;BME280;36329;48.816;44.624;2023-04-07T15:46:10;101082;;;16.3;43.6
49583;BME280;36329;48.816;44.624;2023-04-07T15:49:12;101078;;;16.2;44.3
49583;BME280;36329;48.816;44.624;2023-04-07T15:52:14;101093;;;16.1;44.4
49583;BME280;36329;48.816;44.624;2023-04-07T15:55:17;101096;;;16.2;44.6
49583;BME280;36329;48.816;44.624;2023-04-07T15:58:19;101103;;;16.3;44.7
49583;BME280;36329;48.816;44.624;2023-04-07T16:01:20;101105;;;16.1;45.3
49583;BME280;36329;48.816;44.624;2023-04-07T16:04:23;101110;;;16;45.9
49583;BME280;36329;48.816;44.624;2023-04-07T16:07:24;101119;;;15.9;46.3
49583;BME280;36329;48.816;44.624;2023-04-07T16:10:26;101121;;;15.8;46.8
49583;BME280;36329;48.816;44.624;2023-04-07T16:13:28;101124;;;15.6;47.1
49583;BME280;36329;48.816;44.624;2023-04-07T16:16:30;101131;;;15.6;47.8
49583;BME280;36329;48.816;44.624;2023-04-07T16:19:33;101142;;;15.6;47.5
49583;BME280;36329;48.816;44.624;2023-04-07T16:22:34;101143;;;15.6;47.8
49583;BME280;36329;48.816;44.624;2023-04-07T16:25:38;101151;;;15.4;48.4
49583;BME280;36329;48.816;44.624;2023-04-07T16:28:40;101155;;;15.4;48.1
49583;BME280;36329;48.816;44.624;2023-04-07T16:31:42;101158;;;15.3;48.8
49583;BME280;36329;48.816;44.624;2023-04-07T16:34:44;101177;;;15.2;48.9
49583;BME280;36329;48.816;44.624;2023-04-07T16:37:46;101176;;;15;49.1
49583;BME280;36329;48.816;44.624;2023-04-07T16:40:48;101180;;;14.9;49.5
49583;BME280;36329;48.816;44.624;2023-04-07T16:43:49;101173;;;14.8;49.7
49583;BME280;36329;48.816;44.624;2023-04-07T16:46:51;101177;;;14.9;49.5
49583;BME280;36329;48.816;44.624;2023-04-07T16:49:53;101192;;;14.8;49.8
49583;BME280;36329;48.816;44.624;2023-04-07T16:52:55;101193;;;14.7;50.3
49583;BME280;36329;48.816;44.624;2023-04-07T16:55:57;101200;;;14.5;51.1